Tropical Cyclones
[Index]
Main Index Home Page Stock Weather Photos Extreme Storms Discussion Storm News and Storm Chasing Reports Tropical Cyclones / Hurricanes / Typhoons Weather Data and Links Wild Fires / Bushfires Weather Observation Techniques Weather Picture Catalogue Tornado Pictures and Reports Stock Video Footage and DVDs for sale
Season 2002-2003 Tropical Cyclone MANOU Track Map
Season 2002-2003 Summaries: [BoM-AU] [JTWC-AU] [JTWC-SIO] [JTWC-SPAC] [JTWC-SH]
<<- Previous TC | JTWC 2002-2003 Season | Next TC ->>

click for intensity scale information  Lat/long Grid: Show Hide

 Date Labels: Show Hide

Joint Typhoon Warning Centre Cyclone Data

Name: MANOU

02 May 2003 00:00 UTC to 10 May 2003 18:00 UTC

    date/time    lat    long     hPa   cat  kts
2003-05-02 00   11.0    65.7    1002         25          
2003-05-02 06   11.1    65.3    1002         25          
2003-05-02 12   11.3    65.0    1002         25          
2003-05-02 18   11.6    64.7    1002         25          
2003-05-03 00   12.1    64.4    1002         25          
2003-05-03 06   12.8    64.0    1000         30          
2003-05-03 12   13.7    63.4     997         35          
2003-05-03 18   14.4    62.6     994    1    40          
2003-05-04 00   15.0    61.8     991    1    45          
2003-05-04 06   15.3    61.2     991    1    45          
2003-05-04 12   15.6    60.7     991    1    45          
2003-05-04 18   15.9    60.1     991    1    45          
2003-05-05 00   16.1    59.4     991    1    45          
2003-05-05 06   16.1    58.7     991    1    45          
2003-05-05 12   16.2    58.1     994    1    40          
2003-05-05 18   16.4    57.5     994    1    40          
2003-05-06 00   16.8    56.9     997         35          
2003-05-06 06   17.1    56.1     997         35          
2003-05-06 12   17.5    55.2     997         35          
2003-05-06 18   17.9    54.3     997         35          
2003-05-07 00   18.1    53.4     997         35          
2003-05-07 06   18.3    52.6     991    1    45          
2003-05-07 12   18.6    51.8     991    1    45          
2003-05-07 18   18.7    51.2     984    2    55          
2003-05-08 00   18.8    50.5     984    2    55          
2003-05-08 06   19.1    49.8     976    2    65          
2003-05-08 12   19.2    49.4     967    3    75          
2003-05-08 18   19.3    49.2     967    3    75          
2003-05-09 00   19.4    49.1     967    3    75          
2003-05-09 06   19.5    49.0     967    3    75          
2003-05-09 12   19.7    48.9     976    2    65          
2003-05-09 18   20.0    48.9     980    2    60          
2003-05-10 00   20.4    48.9     991    1    45          
2003-05-10 06   21.0    48.9     994    1    40          
2003-05-10 12   21.8    48.8     997         35          
2003-05-10 18   22.9    48.9    1000         30          
Winds are 1-min average.

Tropical cyclone tracks developed by Michael Bath using data from the Joint Typhoon Warning Centre Best Tracks and Google Maps.


[Australian Severe Weather index] [Copyright Notice] [Email Contacts] [Search This Site] [Privacy Policy]
Document: tropical_cyclone_manou.htm Updated: 28 June 2017